Terminal Aerodrome Forecast
Issued by NWS

Home | Current Version | Previous Version | Text Only | Print | Product List | Glossary On
Versions: 1 2 3 4 5 6 7 8 9 10 11 12 13 14 15
000
FTUS43 KDDC 232339 AAA
TAFHYS
TAF AMD
KHYS 232339Z 2400/2424 01023G31KT P6SM OVC030
     FM240100 35018KT 5SM BR VCSH OVC008
     FM240500 34016KT P6SM VCSH OVC015
     FM241900 33019G28KT P6SM BKN030=

USA.gov is the U.S. government's official web portal to all federal, state and local government web resources and services.